Time;durP1;ratioP1;P1;durP2;ratioP2;P2;SDS_P1;SDS_P2;PMS_P1;PMS_P2;Temp;Humidity;BMP_temperature;BMP_pressure;BME280_temperature;BME280_humidity;BME280_pressure;Samples;Min_cycle;Max_cycle;Signal;HPM_P1;HPM_P2
2022/11/26 00:01:43;;;;;;;28.00;14.73;;;;;;;5.03;100.00;97206.38;10249321;28;20211;-64
2022/11/26 00:06:44;;;;;;;29.03;14.80;;;;;;;4.97;100.00;97208.44;10249481;29;20587;-64
2022/11/26 00:11:44;;;;;;;29.10;13.90;;;;;;;5.04;100.00;97221.84;10248498;28;20222;-64
2022/11/26 00:16:45;;;;;;;27.17;15.10;;;;;;;4.99;100.00;97216.97;10231974;29;20191;-62
2022/11/26 00:21:45;;;;;;;25.23;15.13;;;;;;;5.04;100.00;97221.00;10359670;23;20287;-57
2022/11/26 00:26:45;;;;;;;24.30;13.30;;;;;;;4.99;100.00;97222.19;10368851;28;20243;-58
2022/11/26 00:31:46;;;;;;;22.53;13.40;;;;;;;4.97;100.00;97234.41;10385370;28;20215;-57
2022/11/26 00:36:47;;;;;;;21.30;11.90;;;;;;;5.08;100.00;97231.06;10409234;28;20200;-56
2022/11/26 00:41:50;;;;;;;22.97;12.93;;;;;;;4.95;100.00;97231.09;10390095;28;20216;-57
2022/11/26 00:46:51;;;;;;;29.10;13.07;;;;;;;4.90;100.00;97225.44;10408885;28;20641;-59
2022/11/26 00:51:51;;;;;;;27.60;14.83;;;;;;;5.02;100.00;97241.06;10407447;28;20296;-59
2022/11/26 00:56:52;;;;;;;24.07;14.87;;;;;;;4.99;100.00;97247.28;10407805;28;20188;-59
2022/11/26 01:01:52;;;;;;;22.80;14.07;;;;;;;5.04;100.00;97242.63;10389905;28;20675;-57
2022/11/26 01:06:52;;;;;;;27.40;14.07;;;;;;;5.11;100.00;97245.59;10407180;28;20624;-59
2022/11/26 01:11:53;;;;;;;26.07;13.20;;;;;;;5.04;100.00;97249.56;10407094;28;20575;-59
2022/11/26 01:16:54;;;;;;;28.27;14.33;;;;;;;5.04;100.00;97255.59;10407410;28;20196;-57
2022/11/26 01:21:55;;;;;;;27.13;13.93;;;;;;;5.03;100.00;97260.91;10399200;28;20232;-57
2022/11/26 01:26:55;;;;;;;24.93;14.50;;;;;;;4.96;100.00;97269.13;10407159;28;20212;-57
2022/11/26 01:31:55;;;;;;;28.10;14.63;;;;;;;5.02;100.00;97277.41;10406600;28;20209;-56
2022/11/26 01:36:56;;;;;;;27.67;15.03;;;;;;;5.09;100.00;97276.06;10407001;28;20215;-54
2022/11/26 01:42:24;;;;;;;26.87;14.90;;;;;;;5.05;100.00;97277.19;10405603;28;20686;-58
2022/11/26 01:47:28;;;;;;;32.37;14.30;;;;;;;5.05;100.00;97283.22;10405792;28;20577;-55
2022/11/26 01:52:28;;;;;;;26.37;14.43;;;;;;;5.13;100.00;97282.66;10405382;28;20205;-56
2022/11/26 01:57:29;;;;;;;26.10;14.90;;;;;;;5.09;100.00;97292.44;10406551;28;20192;-59
2022/11/26 02:02:29;;;;;;;29.83;15.63;;;;;;;5.04;100.00;97286.75;10402913;28;20216;-56
2022/11/26 02:07:33;;;;;;;29.43;14.83;;;;;;;4.99;100.00;97299.22;10406185;28;20197;-53
2022/11/26 02:12:33;;;;;;;29.30;15.50;;;;;;;5.05;100.00;97296.19;10404920;28;20250;-58
2022/11/26 02:17:48;;;;;;;29.27;16.50;;;;;;;5.12;100.00;97291.41;10405681;28;20193;-57
2022/11/26 02:22:49;;;;;;;30.40;15.70;;;;;;;5.25;100.00;97299.97;10405382;28;20686;-56
2022/11/26 02:28:11;;;;;;;24.97;16.50;;;;;;;5.22;100.00;97305.41;10405840;28;20201;-55
2022/11/26 02:33:21;;;;;;;32.70;18.30;;;;;;;5.16;100.00;97308.41;10405889;28;20204;-56
2022/11/26 02:38:24;;;;;;;35.70;18.13;;;;;;;5.11;100.00;97313.13;10387462;28;20730;-54
2022/11/26 02:43:25;;;;;;;33.13;16.77;;;;;;;5.08;100.00;97318.53;10387431;28;20227;-55
2022/11/26 02:48:30;;;;;;;33.17;16.83;;;;;;;5.06;100.00;97330.81;10405491;28;20219;-52
2022/11/26 02:53:34;;;;;;;33.10;17.37;;;;;;;5.12;100.00;97333.78;10404586;28;21025;-56
2022/11/26 02:58:35;;;;;;;34.70;16.33;;;;;;;5.17;100.00;97329.09;10405397;28;20212;-55
2022/11/26 03:03:39;;;;;;;32.97;15.90;;;;;;;5.07;100.00;97337.63;10385982;28;20221;-55
2022/11/26 03:08:41;;;;;;;32.47;17.47;;;;;;;4.98;100.00;97333.94;10387217;28;20782;-56
2022/11/26 03:13:42;;;;;;;32.40;17.03;;;;;;;4.85;100.00;97346.91;10389557;28;20308;-54
2022/11/26 03:18:42;;;;;;;30.10;16.60;;;;;;;4.98;100.00;97359.91;10411695;28;20475;-54
2022/11/26 03:23:43;;;;;;;33.30;16.67;;;;;;;4.88;100.00;97371.84;10410787;28;20215;-58
2022/11/26 03:28:43;;;;;;;28.30;15.40;;;;;;;4.90;100.00;97373.41;10409822;28;20216;-60
2022/11/26 03:33:43;;;;;;;30.17;15.53;;;;;;;4.91;100.00;97374.22;10410355;28;20189;-60
2022/11/26 03:38:44;;;;;;;25.27;14.63;;;;;;;4.88;100.00;97380.44;10411028;28;20208;-59
2022/11/26 03:43:44;;;;;;;30.63;14.80;;;;;;;4.85;100.00;97382.44;10410350;28;20304;-58
2022/11/26 03:48:44;;;;;;;32.63;16.53;;;;;;;4.73;100.00;97381.47;10411249;28;20282;-60
2022/11/26 03:53:45;;;;;;;24.80;15.87;;;;;;;4.74;100.00;97396.13;10409854;28;20196;-59
2022/11/26 03:58:46;;;;;;;25.30;14.23;;;;;;;4.73;100.00;97403.09;10407378;28;20904;-56
2022/11/26 04:03:46;;;;;;;26.87;14.23;;;;;;;4.67;100.00;97413.91;10400437;28;20216;-54
2022/11/26 04:08:47;;;;;;;20.97;14.07;;;;;;;4.75;100.00;97421.97;10403680;28;20217;-57
2022/11/26 04:13:47;;;;;;;25.00;12.90;;;;;;;4.72;100.00;97413.59;10402791;28;20958;-54
2022/11/26 04:18:47;;;;;;;21.37;13.53;;;;;;;4.74;100.00;97416.91;10402294;28;20730;-53
2022/11/26 04:23:48;;;;;;;24.83;14.57;;;;;;;4.71;100.00;97424.88;10403046;28;20281;-56
2022/11/26 04:28:49;;;;;;;30.63;16.13;;;;;;;4.72;100.00;97431.75;10402875;28;20235;-55
2022/11/26 04:33:49;;;;;;;33.13;18.23;;;;;;;4.67;100.00;97436.41;10401580;28;20224;-57
2022/11/26 04:38:50;;;;;;;34.23;19.50;;;;;;;4.80;100.00;97455.41;10402480;28;20718;-59
2022/11/26 04:43:50;;;;;;;38.57;20.20;;;;;;;4.90;100.00;97456.47;10401532;28;20224;-55
2022/11/26 04:48:50;;;;;;;33.00;17.80;;;;;;;4.93;100.00;97461.47;10401841;28;20222;-54
2022/11/26 04:53:51;;;;;;;37.50;19.47;;;;;;;4.91;100.00;97478.88;10400705;28;20191;-56
2022/11/26 04:58:51;;;;;;;29.60;18.90;;;;;;;4.96;100.00;97483.78;10401671;28;20219;-58
2022/11/26 05:03:51;;;;;;;40.77;19.97;;;;;;;4.97;100.00;97486.28;10404364;28;20697;-57
2022/11/26 05:08:52;;;;;;;32.30;18.37;;;;;;;5.00;100.00;97496.44;10408497;28;20674;-54
2022/11/26 05:13:52;;;;;;;27.47;14.73;;;;;;;4.93;100.00;97500.41;10407641;28;20860;-54
2022/11/26 05:18:52;;;;;;;25.17;14.17;;;;;;;4.88;100.00;97499.88;10406820;28;20614;-55
2022/11/26 05:23:53;;;;;;;21.43;11.63;;;;;;;4.88;100.00;97505.06;10407953;28;20223;-57
2022/11/26 05:28:53;;;;;;;20.83;10.77;;;;;;;4.93;100.00;97505.59;10407220;28;20217;-56
2022/11/26 05:33:54;;;;;;;19.47;11.77;;;;;;;4.96;100.00;97518.38;10407528;28;20185;-54
2022/11/26 05:38:54;;;;;;;29.77;15.43;;;;;;;4.84;100.00;97516.59;10398468;28;20208;-59
2022/11/26 05:43:54;;;;;;;21.53;15.10;;;;;;;4.97;100.00;97530.41;10366447;28;20213;-56
2022/11/26 05:48:55;;;;;;;19.33;11.33;;;;;;;4.93;100.00;97522.94;10366732;28;20220;-55
2022/11/26 05:53:55;;;;;;;14.73;8.40;;;;;;;4.92;100.00;97527.31;10365284;28;20235;-60
2022/11/26 05:58:55;;;;;;;16.97;8.43;;;;;;;4.88;100.00;97531.03;10366100;28;20221;-60
2022/11/26 06:03:56;;;;;;;14.17;8.70;;;;;;;4.81;100.00;97537.56;10364720;28;20225;-58
2022/11/26 06:08:56;;;;;;;15.50;9.97;;;;;;;4.82;100.00;97536.63;10366022;28;20595;-55
2022/11/26 06:13:57;;;;;;;15.97;9.93;;;;;;;4.79;100.00;97542.84;10365209;28;20197;-53
2022/11/26 06:18:58;;;;;;;19.47;11.53;;;;;;;4.90;100.00;97559.47;10364364;28;20241;-59
2022/11/26 06:23:58;;;;;;;22.43;12.53;;;;;;;4.86;100.00;97565.81;10365140;28;20332;-59
2022/11/26 06:28:58;;;;;;;22.30;13.73;;;;;;;4.89;100.00;97571.63;10364497;28;20209;-59
2022/11/26 06:33:59;;;;;;;25.97;13.83;;;;;;;4.89;100.00;97583.78;10401870;28;20196;-59
2022/11/26 06:38:59;;;;;;;24.37;13.63;;;;;;;4.73;100.00;97584.78;10405991;28;20271;-59
2022/11/26 06:43:59;;;;;;;18.90;11.87;;;;;;;4.76;100.00;97583.75;10404865;28;20307;-59
2022/11/26 06:49:01;;;;;;;22.67;11.20;;;;;;;4.80;100.00;97587.81;10409919;28;20212;-59
2022/11/26 06:54:02;;;;;;;17.57;10.87;;;;;;;4.75;100.00;97592.47;10413066;28;20683;-59
2022/11/26 06:59:02;;;;;;;20.57;11.60;;;;;;;4.71;100.00;97601.38;10413205;28;20335;-59
2022/11/26 07:04:03;;;;;;;22.47;12.33;;;;;;;4.86;100.00;97605.59;10412325;28;20244;-58
2022/11/26 07:09:07;;;;;;;29.63;15.23;;;;;;;4.83;100.00;97613.56;10412934;28;20652;-57
2022/11/26 07:14:08;;;;;;;33.53;16.77;;;;;;;4.83;100.00;97631.75;10412476;28;20235;-56
2022/11/26 07:19:11;;;;;;;44.67;19.00;;;;;;;4.81;100.00;97638.81;10387613;28;20232;-58
2022/11/26 07:24:11;;;;;;;36.53;19.53;;;;;;;4.83;100.00;97644.72;10424735;28;20269;-58
2022/11/26 07:29:12;;;;;;;42.07;19.50;;;;;;;4.89;100.00;97651.31;10453310;28;20760;-59
2022/11/26 07:34:12;;;;;;;43.00;20.00;;;;;;;4.92;100.00;97659.72;10453533;28;20245;-58
2022/11/26 07:39:12;;;;;;;37.30;16.63;;;;;;;4.96;100.00;97663.78;10452932;28;20211;-59
2022/11/26 07:44:13;;;;;;;32.63;16.03;;;;;;;4.93;100.00;97674.38;10440029;28;20228;-57
2022/11/26 07:49:14;;;;;;;38.17;16.90;;;;;;;4.91;100.00;97678.00;10407818;28;20303;-59
2022/11/26 07:54:14;;;;;;;31.97;16.03;;;;;;;-145.68;100.00;63218.00;10391674;28;20189;-57
2022/11/26 07:59:14;;;;;;;35.43;16.07;;;;;;;-145.68;100.00;63218.00;10408581;28;20290;-59
2022/11/26 08:04:15;;;;;;;36.57;15.17;;;;;;;-145.68;100.00;63218.00;10409677;28;20231;-59
2022/11/26 08:09:15;;;;;;;28.77;12.07;;;;;;;-145.68;100.00;63218.00;10409022;28;20212;-58
2022/11/26 08:14:16;;;;;;;31.43;13.53;;;;;;;-145.68;100.00;63218.00;10408514;28;20195;-57
2022/11/26 08:19:16;;;;;;;28.13;14.80;;;;;;;-145.68;100.00;63218.00;10406570;28;20260;-59
2022/11/26 08:24:18;;;;;;;34.43;14.20;;;;;;;-145.68;100.00;63218.00;10407045;28;20213;-59
2022/11/26 08:29:18;;;;;;;24.73;11.90;;;;;;;-145.68;100.00;63218.00;10398334;28;20302;-58
2022/11/26 08:34:19;;;;;;;28.33;12.27;;;;;;;-145.68;100.00;63218.00;10406334;28;20218;-58
2022/11/26 08:39:19;;;;;;;25.10;9.53;;;;;;;-145.68;100.00;63218.00;10404864;28;20612;-56
2022/11/26 08:44:20;;;;;;;26.93;9.60;;;;;;;-145.68;100.00;63218.00;10405602;28;20258;-59
2022/11/26 08:49:20;;;;;;;32.67;10.40;;;;;;;-145.68;100.00;63218.00;10405920;28;20232;-58
2022/11/26 08:54:21;;;;;;;34.27;10.70;;;;;;;-145.68;100.00;63218.00;10369391;28;20272;-58
2022/11/26 08:59:23;;;;;;;26.17;9.20;;;;;;;-145.68;100.00;63218.00;10393983;28;20266;-59
2022/11/26 09:04:23;;;;;;;23.87;9.23;;;;;;;-145.68;100.00;63218.00;10405412;28;20217;-58
2022/11/26 09:09:24;;;;;;;21.40;8.93;;;;;;;-145.68;100.00;63218.00;10404729;28;20212;-58
2022/11/26 09:14:33;;;;;;;24.07;8.47;;;;;;;-145.68;100.00;63218.00;10403953;28;20188;-57
2022/11/26 09:19:33;;;;;;;31.93;9.03;;;;;;;-145.68;100.00;63218.00;10405424;28;20592;-58
2022/11/26 09:24:34;;;;;;;25.13;6.60;;;;;;;-145.68;100.00;63218.00;10402471;28;20259;-59
2022/11/26 09:29:34;;;;;;;20.00;7.40;;;;;;;-145.68;100.00;63218.00;10404510;28;20204;-59
2022/11/26 09:34:35;;;;;;;17.80;6.50;;;;;;;-145.68;100.00;63218.00;10404090;28;20200;-58
2022/11/26 09:39:35;;;;;;;21.57;6.10;;;;;;;-145.68;100.00;63218.00;10404941;28;20209;-56
2022/11/26 09:44:51;;;;;;;19.57;6.53;;;;;;;-145.68;100.00;63218.00;10404287;28;20216;-57
2022/11/26 09:49:59;;;;;;;21.67;7.00;;;;;;;-145.68;100.00;63218.00;10403991;28;20216;-57
2022/11/26 09:55:11;;;;;;;23.87;6.47;;;;;;;-145.68;100.00;63218.00;10403539;28;20197;-55
2022/11/26 10:00:23;;;;;;;13.73;4.77;;;;;;;-145.68;100.00;63218.00;10385900;28;20223;-59
2022/11/26 10:05:39;;;;;;;15.27;4.27;;;;;;;-145.68;100.00;63218.00;10403506;28;20242;-58
2022/11/26 10:10:51;;;;;;;19.70;5.73;;;;;;;-145.68;100.00;63218.00;10385707;28;20216;-59
2022/11/26 10:15:54;;;;;;;16.57;5.23;;;;;;;-145.68;100.00;63218.00;10397540;28;20193;-56
2022/11/26 10:21:03;;;;;;;15.70;4.73;;;;;;;-145.68;100.00;63218.00;10402719;28;20232;-57
2022/11/26 10:26:08;;;;;;;14.80;4.03;;;;;;;-145.68;100.00;63218.00;10412697;28;20232;-58
2022/11/26 10:31:15;;;;;;;20.80;4.73;;;;;;;-145.68;100.00;63218.00;10393001;28;20242;-57
2022/11/26 10:36:22;;;;;;;17.37;4.97;;;;;;;-145.68;100.00;63218.00;10410811;28;20234;-57
2022/11/26 10:41:27;;;;;;;17.27;4.67;;;;;;;-145.68;100.00;63218.00;10411550;28;20209;-56
2022/11/26 10:46:33;;;;;;;16.43;4.07;;;;;;;-145.68;100.00;63218.00;10394313;28;20299;-59
2022/11/26 10:51:36;;;;;;;16.43;4.13;;;;;;;-145.68;100.00;63218.00;10410215;28;20250;-59
2022/11/26 10:56:42;;;;;;;8.47;3.60;;;;;;;-145.68;100.00;63218.00;10413126;28;20600;-59
2022/11/26 11:01:43;;;;;;;16.50;4.00;;;;;;;-145.68;100.00;63218.00;10394858;28;20819;-59
2022/11/26 11:06:43;;;;;;;13.90;3.90;;;;;;;-145.68;100.00;63218.00;10393574;28;20319;-59
2022/11/26 11:11:44;;;;;;;14.53;4.80;;;;;;;-145.68;100.00;63218.00;10411698;28;20205;-59
2022/11/26 11:16:44;;;;;;;14.57;4.40;;;;;;;-145.68;100.00;63218.00;10412459;28;20219;-58
2022/11/26 11:21:45;;;;;;;18.93;5.17;;;;;;;-145.68;100.00;63218.00;10411832;28;20294;-59
2022/11/26 11:26:49;;;;;;;15.07;4.83;;;;;;;-145.68;100.00;63218.00;10411732;28;20228;-59
2022/11/26 11:31:49;;;;;;;16.33;5.17;;;;;;;-145.68;100.00;63218.00;10411808;28;20250;-59
2022/11/26 11:37:13;;;;;;;17.77;6.97;;;;;;;-145.68;100.00;63218.00;10411459;28;20180;-58
2022/11/26 11:42:22;;;;;;;16.20;6.57;;;;;;;-145.68;100.00;63218.00;10411773;28;20219;-58
2022/11/26 11:47:35;;;;;;;11.57;4.30;;;;;;;-145.68;100.00;63218.00;10394841;28;20680;-58
2022/11/26 11:53:00;;;;;;;12.60;4.33;;;;;;;-145.68;100.00;63218.00;10411077;28;20204;-58
2022/11/26 11:58:21;;;;;;;11.10;3.90;;;;;;;-145.68;100.00;63218.00;10411988;28;20220;-58
2022/11/26 12:03:57;;;;;;;17.90;5.50;;;;;;;-145.68;100.00;63218.00;10393201;28;20270;-57
2022/11/26 12:09:18;;;;;;;15.37;4.23;;;;;;;-145.68;100.00;63218.00;10419358;28;20729;-59
2022/11/26 12:14:35;;;;;;;13.97;4.10;;;;;;;-145.68;100.00;63218.00;10393215;28;20185;-59
2022/11/26 12:19:39;;;;;;;15.53;4.20;;;;;;;-145.68;100.00;63218.00;10408263;28;20231;-59
2022/11/26 12:24:44;;;;;;;13.30;5.10;;;;;;;-145.68;100.00;63218.00;10433580;28;20247;-59
2022/11/26 12:29:51;;;;;;;18.67;5.33;;;;;;;-145.68;100.00;63218.00;10450672;28;20271;-59
2022/11/26 12:34:54;;;;;;;19.67;5.60;;;;;;;-145.68;100.00;63218.00;10433385;28;20207;-59
2022/11/26 12:40:00;;;;;;;23.80;5.23;;;;;;;-145.68;100.00;63218.00;10433110;28;20212;-60
2022/11/26 12:45:15;;;;;;;15.10;5.73;;;;;;;-145.68;100.00;63218.00;10449586;28;20231;-60
2022/11/26 12:50:29;;;;;;;16.77;4.30;;;;;;;-145.68;100.00;63218.00;10432266;28;20223;-59
2022/11/26 12:55:44;;;;;;;15.17;3.80;;;;;;;-145.68;100.00;63218.00;10432960;28;20263;-58
2022/11/26 13:00:46;;;;;;;10.63;3.60;;;;;;;-145.68;100.00;63218.00;10431554;28;20230;-59
2022/11/26 13:06:00;;;;;;;15.93;4.53;;;;;;;-145.68;100.00;63218.00;10450155;28;20223;-59
2022/11/26 13:11:15;;;;;;;11.47;3.57;;;;;;;-145.68;100.00;63218.00;10448084;28;20291;-59
2022/11/26 13:16:36;;;;;;;10.17;3.47;;;;;;;-145.68;100.00;63218.00;10431353;28;20261;-57
2022/11/26 13:21:59;;;;;;;10.67;3.70;;;;;;;-145.68;100.00;63218.00;10431923;28;20380;-60
2022/11/26 13:27:10;;;;;;;19.70;4.57;;;;;;;-145.68;100.00;63218.00;10448838;28;20219;-59
2022/11/26 13:32:24;;;;;;;12.63;4.00;;;;;;;-145.68;100.00;63218.00;10430711;28;20258;-59
2022/11/26 13:37:38;;;;;;;12.63;4.37;;;;;;;-145.68;100.00;63218.00;10448924;28;20184;-57
2022/11/26 13:42:53;;;;;;;15.87;4.13;;;;;;;-145.68;100.00;63218.00;10448356;28;20241;-59
2022/11/26 13:48:03;;;;;;;12.97;4.83;;;;;;;-145.68;100.00;63218.00;10430651;28;20211;-58
2022/11/26 13:53:15;;;;;;;15.87;4.07;;;;;;;-145.68;100.00;63218.00;10447672;28;20180;-59
2022/11/26 13:59:02;;;;;;;13.73;4.10;;;;;;;-145.68;100.00;63218.00;10431147;28;20212;-59
2022/11/26 14:04:14;;;;;;;13.40;4.80;;;;;;;-145.68;100.00;63218.00;10444656;28;20239;-59
2022/11/26 14:09:43;;;;;;;18.87;6.33;;;;;;;-145.68;100.00;63218.00;10448068;28;20299;-58
2022/11/26 14:14:46;;;;;;;14.70;4.53;;;;;;;-145.68;100.00;63218.00;10447353;28;20216;-59
2022/11/26 14:19:47;;;;;;;19.27;5.57;;;;;;;-145.68;100.00;63218.00;10447358;28;20285;-60
2022/11/26 14:24:47;;;;;;;20.60;4.83;;;;;;;-145.68;100.00;63218.00;10446451;28;20557;-60
2022/11/26 14:29:58;;;;;;;13.27;5.53;;;;;;;-145.68;100.00;63218.00;10447429;28;20231;-59
2022/11/26 14:34:59;;;;;;;19.13;6.10;;;;;;;-145.68;100.00;63218.00;10447122;28;20215;-60
2022/11/26 14:40:25;;;;;;;16.37;6.03;;;;;;;-145.68;100.00;63218.00;10447391;28;20322;-60
2022/11/26 14:45:25;;;;;;;13.87;5.63;;;;;;;-145.68;100.00;63218.00;10444582;28;20246;-60
2022/11/26 14:50:29;;;;;;;17.63;6.37;;;;;;;-145.68;100.00;63218.00;10434595;28;20208;-59
2022/11/26 14:55:30;;;;;;;11.50;5.40;;;;;;;-145.68;100.00;63218.00;10430154;28;20195;-60
2022/11/26 15:00:31;;;;;;;24.67;7.03;;;;;;;-145.68;100.00;63218.00;10439845;28;20282;-60
2022/11/26 15:05:33;;;;;;;20.37;7.13;;;;;;;-145.68;100.00;63218.00;10404829;28;20332;-61
2022/11/26 15:10:38;;;;;;;20.37;7.70;;;;;;;-145.68;100.00;63218.00;10407456;28;20212;-61
2022/11/26 15:15:55;;;;;;;23.90;10.03;;;;;;;-145.68;100.00;63218.00;10394076;28;20644;-61
2022/11/26 15:20:56;;;;;;;19.50;8.30;;;;;;;-145.68;100.00;63218.00;10411002;28;20247;-62
2022/11/26 15:25:57;;;;;;;26.07;8.63;;;;;;;-145.68;100.00;63218.00;10411457;28;20227;-62
2022/11/26 15:31:00;;;;;;;18.40;8.60;;;;;;;-145.68;100.00;63218.00;10410852;28;20258;-62
2022/11/26 15:36:01;;;;;;;19.57;6.73;;;;;;;-145.68;100.00;63218.00;10411289;28;20711;-61
2022/11/26 15:41:18;;;;;;;18.17;7.43;;;;;;;-145.68;100.00;63218.00;10409981;28;20216;-61
2022/11/26 15:46:29;;;;;;;23.20;6.70;;;;;;;-145.68;100.00;63218.00;10393430;28;20220;-62
2022/11/26 15:51:32;;;;;;;26.10;8.07;;;;;;;-145.68;100.00;63218.00;10432839;28;21048;-62
2022/11/26 15:56:36;;;;;;;24.90;9.50;;;;;;;-145.68;100.00;63218.00;10403724;28;20235;-61
2022/11/26 16:01:37;;;;;;;50.27;18.73;;;;;;;-145.68;100.00;63218.00;10393230;28;20213;-62
2022/11/26 16:06:39;;;;;;;47.87;19.97;;;;;;;-145.68;100.00;63218.00;10409841;28;20225;-62
2022/11/26 16:11:43;;;;;;;32.03;13.10;;;;;;;-145.68;100.00;63218.00;10410307;28;20266;-62
2022/11/26 16:16:43;;;;;;;31.27;15.03;;;;;;;-145.68;100.00;63218.00;10410790;28;20960;-62
2022/11/26 16:21:48;;;;;;;28.10;12.30;;;;;;;-145.68;100.00;63218.00;10409527;28;20240;-62
2022/11/26 16:27:16;;;;;;;19.87;9.07;;;;;;;-145.68;100.00;63218.00;10392519;28;20228;-61
2022/11/26 16:32:17;;;;;;;24.37;9.47;;;;;;;-145.68;100.00;63218.00;10409814;28;20219;-61
2022/11/26 16:37:23;;;;;;;21.60;10.50;;;;;;;-145.68;100.00;63218.00;10409793;28;20199;-61
2022/11/26 16:42:24;;;;;;;26.10;12.27;;;;;;;-145.68;100.00;63218.00;10409357;28;20205;-60
2022/11/26 16:47:38;;;;;;;34.93;12.23;;;;;;;-145.68;100.00;63218.00;10421009;28;20235;-60
2022/11/26 16:52:39;;;;;;;24.70;14.17;;;;;;;-145.68;100.00;63218.00;10449299;28;20203;-60
2022/11/26 16:57:41;;;;;;;24.20;13.10;;;;;;;-145.68;100.00;63218.00;10450981;28;20295;-61
2022/11/26 17:02:41;;;;;;;26.63;13.93;;;;;;;-145.68;100.00;63218.00;10441006;28;20273;-61
2022/11/26 17:07:48;;;;;;;41.20;18.60;;;;;;;-145.68;100.00;63218.00;10449860;28;20187;-61
2022/11/26 17:12:49;;;;;;;36.40;20.77;;;;;;;-145.68;100.00;63218.00;10448433;28;20210;-61
2022/11/26 17:17:51;;;;;;;39.43;22.77;;;;;;;-145.68;100.00;63218.00;10449023;28;20210;-62
2022/11/26 17:22:52;;;;;;;36.83;19.57;;;;;;;-145.68;100.00;63218.00;10448598;28;20570;-61
2022/11/26 17:27:52;;;;;;;33.77;18.23;;;;;;;-145.68;100.00;63218.00;10430453;28;20245;-61
2022/11/26 17:32:53;;;;;;;24.77;13.77;;;;;;;-145.68;100.00;63218.00;10446660;28;20187;-61
2022/11/26 17:37:53;;;;;;;29.23;15.90;;;;;;;-145.68;100.00;63218.00;10446897;28;20204;-61
2022/11/26 17:42:53;;;;;;;27.53;14.20;;;;;;;-145.68;100.00;63218.00;10429053;28;20743;-61
2022/11/26 17:47:54;;;;;;;24.13;11.30;;;;;;;-145.68;100.00;63218.00;10446798;28;20215;-62
2022/11/26 17:52:54;;;;;;;25.00;11.87;;;;;;;-145.68;100.00;63218.00;10446325;28;20188;-62
2022/11/26 17:57:55;;;;;;;37.63;15.70;;;;;;;-145.68;100.00;63218.00;10447623;28;20223;-61
2022/11/26 18:02:56;;;;;;;24.87;10.03;;;;;;;-145.68;100.00;63218.00;10445432;28;20690;-61
2022/11/26 18:07:56;;;;;;;26.80;10.47;;;;;;;-145.68;100.00;63218.00;10446409;28;20208;-62
2022/11/26 18:12:57;;;;;;;20.63;9.23;;;;;;;-145.68;100.00;63218.00;10446134;28;20184;-61
2022/11/26 18:17:57;;;;;;;22.50;12.40;;;;;;;-145.68;100.00;63218.00;10445980;28;20318;-60
2022/11/26 18:22:59;;;;;;;20.30;9.07;;;;;;;-145.68;100.00;63218.00;10446155;28;20223;-62
2022/11/26 18:27:59;;;;;;;23.77;9.00;;;;;;;-145.68;100.00;63218.00;10446223;28;20214;-60
2022/11/26 18:33:00;;;;;;;23.97;11.00;;;;;;;-145.68;100.00;63218.00;10446407;28;20199;-62
2022/11/26 18:38:02;;;;;;;21.80;9.67;;;;;;;-145.68;100.00;63218.00;10445775;28;20215;-61
2022/11/26 18:43:03;;;;;;;20.27;8.23;;;;;;;-145.68;100.00;63218.00;10419805;28;20221;-59
2022/11/26 18:48:04;;;;;;;20.43;7.67;;;;;;;-145.68;100.00;63218.00;10413346;28;20238;-61
2022/11/26 18:53:05;;;;;;;19.20;8.13;;;;;;;-145.68;100.00;63218.00;10411760;28;20219;-62
2022/11/26 18:58:05;;;;;;;18.33;8.20;;;;;;;-145.68;100.00;63218.00;10412833;28;20583;-62
2022/11/26 19:03:06;;;;;;;21.00;7.93;;;;;;;-145.68;100.00;63218.00;10420608;28;20212;-61
2022/11/26 19:08:06;;;;;;;21.40;8.43;;;;;;;-145.68;100.00;63218.00;10438026;28;20210;-61
2022/11/26 19:13:08;;;;;;;19.43;7.90;;;;;;;-145.68;100.00;63218.00;10452883;28;20230;-62
2022/11/26 19:18:09;;;;;;;14.53;7.87;;;;;;;-145.68;100.00;63218.00;10435111;28;20254;-62
2022/11/26 19:23:10;;;;;;;22.87;8.87;;;;;;;-145.68;100.00;63218.00;10443621;28;20211;-61
2022/11/26 19:28:11;;;;;;;24.33;8.27;;;;;;;-145.68;100.00;63218.00;10452323;28;20578;-61
2022/11/26 19:33:11;;;;;;;18.40;8.00;;;;;;;-145.68;100.00;63218.00;10452017;28;20206;-61
2022/11/26 19:38:11;;;;;;;21.70;9.07;;;;;;;-145.68;100.00;63218.00;10452360;28;20204;-61
2022/11/26 19:43:12;;;;;;;22.83;11.23;;;;;;;-145.68;100.00;63218.00;10451796;28;20231;-60
2022/11/26 19:48:12;;;;;;;34.40;18.43;;;;;;;-145.68;100.00;63218.00;10451439;28;20226;-61
2022/11/26 19:53:12;;;;;;;28.07;12.07;;;;;;;-145.68;100.00;63218.00;10451414;28;20196;-60
2022/11/26 19:58:13;;;;;;;32.87;18.17;;;;;;;-145.68;100.00;63218.00;10450914;28;20211;-62
2022/11/26 20:03:13;;;;;;;40.07;12.90;;;;;;;-145.68;100.00;63218.00;10450629;28;20674;-61
2022/11/26 20:08:14;;;;;;;31.30;15.53;;;;;;;-145.68;100.00;63218.00;10451116;28;20771;-61
2022/11/26 20:13:14;;;;;;;31.40;10.63;;;;;;;-145.68;100.00;63218.00;10450163;28;20215;-61
2022/11/26 20:18:14;;;;;;;26.03;11.00;;;;;;;-145.68;100.00;63218.00;10450475;28;20267;-61
2022/11/26 20:23:15;;;;;;;22.63;11.07;;;;;;;-145.68;100.00;63218.00;10450175;28;20689;-61
2022/11/26 20:28:15;;;;;;;23.87;11.10;;;;;;;-145.68;100.00;63218.00;10450602;28;20701;-61
2022/11/26 20:33:17;;;;;;;25.23;10.40;;;;;;;-145.68;100.00;63218.00;10449386;28;20192;-61
2022/11/26 20:38:18;;;;;;;23.00;10.47;;;;;;;-145.68;100.00;63218.00;10449398;28;20212;-61
2022/11/26 20:43:18;;;;;;;22.90;10.27;;;;;;;-145.68;100.00;63218.00;10449720;28;20220;-61
2022/11/26 20:48:19;;;;;;;25.43;11.57;;;;;;;-145.68;100.00;63218.00;10449174;28;20214;-61
2022/11/26 20:53:19;;;;;;;27.97;9.90;;;;;;;-145.68;100.00;63218.00;10446993;28;20242;-61
2022/11/26 20:58:21;;;;;;;18.07;9.40;;;;;;;-145.68;100.00;63218.00;10415092;28;20247;-61
2022/11/26 21:03:23;;;;;;;23.53;10.67;;;;;;;-145.68;100.00;63218.00;10430552;28;20256;-61
2022/11/26 21:08:24;;;;;;;23.47;11.07;;;;;;;-145.68;100.00;63218.00;10435846;28;20223;-59
2022/11/26 21:13:24;;;;;;;22.97;10.23;;;;;;;-145.68;100.00;63218.00;10447636;28;20196;-61
2022/11/26 21:18:24;;;;;;;22.37;9.30;;;;;;;-145.68;100.00;63218.00;10448482;28;20235;-61
2022/11/26 21:23:25;;;;;;;23.70;10.30;;;;;;;-145.68;100.00;63218.00;10448153;28;20214;-61
2022/11/26 21:28:26;;;;;;;21.73;10.57;;;;;;;-145.68;100.00;63218.00;10448083;28;20204;-61
2022/11/26 21:33:26;;;;;;;30.73;11.50;;;;;;;-145.68;100.00;63218.00;10447535;28;20188;-61
2022/11/26 21:38:26;;;;;;;29.53;11.97;;;;;;;-145.68;100.00;63218.00;10448300;28;20218;-61
2022/11/26 21:43:27;;;;;;;21.63;11.80;;;;;;;-145.68;100.00;63218.00;10446891;28;20200;-61
2022/11/26 21:48:27;;;;;;;28.47;12.57;;;;;;;-145.68;100.00;63218.00;10447750;28;20211;-61
2022/11/26 21:53:27;;;;;;;22.80;11.27;;;;;;;-145.68;100.00;63218.00;10447583;28;20209;-61
2022/11/26 21:58:28;;;;;;;28.40;12.93;;;;;;;-145.68;100.00;63218.00;10448034;28;20222;-61
2022/11/26 22:03:29;;;;;;;32.33;14.40;;;;;;;-145.68;100.00;63218.00;10448247;28;20337;-62
2022/11/26 22:08:29;;;;;;;31.70;13.30;;;;;;;-145.68;100.00;63218.00;10447508;28;20758;-61
2022/11/26 22:13:29;;;;;;;21.17;10.93;;;;;;;-145.68;100.00;63218.00;10447687;28;20195;-60
2022/11/26 22:18:30;;;;;;;28.77;12.93;;;;;;;-145.68;100.00;63218.00;10453229;28;20247;-61
2022/11/26 22:23:30;;;;;;;24.83;13.17;;;;;;;-145.68;100.00;63218.00;10461239;28;20219;-61
2022/11/26 22:28:31;;;;;;;23.87;12.07;;;;;;;-145.68;100.00;63218.00;10461317;28;20215;-61
2022/11/26 22:33:31;;;;;;;27.93;12.63;;;;;;;-145.68;100.00;63218.00;10461001;28;20187;-61